createdAt,value
2022-12-18T00:01:21.437Z,100196.03
2022-12-18T00:03:49.407Z,100209.63
2022-12-18T00:06:18.400Z,100206.16
2022-12-18T00:08:47.363Z,100218.66
2022-12-18T00:11:18.822Z,100220.19
2022-12-18T00:13:47.156Z,100223.59
2022-12-18T00:16:16.802Z,100217.81
2022-12-18T00:18:43.723Z,100223.56
2022-12-18T00:21:12.322Z,100226.50
2022-12-18T00:23:40.568Z,100228.00
2022-12-18T00:26:10.946Z,100235.66
2022-12-18T00:28:40.885Z,100240.72
2022-12-18T00:31:11.145Z,100238.81
2022-12-18T00:33:39.038Z,100238.31
2022-12-18T00:36:20.216Z,100245.81
2022-12-18T00:38:49.306Z,100251.22
2022-12-18T00:41:39.540Z,100248.84
2022-12-18T00:44:08.345Z,100245.72
2022-12-18T00:46:35.255Z,100248.53
2022-12-18T00:49:02.464Z,100246.06
2022-12-18T00:51:29.315Z,100241.97
2022-12-18T00:53:56.226Z,100236.31
2022-12-18T00:56:23.167Z,100240.59
2022-12-18T00:58:50.296Z,100238.28
2022-12-18T01:01:17.758Z,100240.03
2022-12-18T01:03:46.210Z,100237.44
2022-12-18T01:06:15.282Z,100233.63
2022-12-18T01:08:42.046Z,100238.53
2022-12-18T01:11:15.240Z,100236.84
2022-12-18T01:13:42.589Z,100235.16
2022-12-18T01:16:10.128Z,100237.75
2022-12-18T01:18:37.109Z,100232.97
2022-12-18T01:21:08.825Z,100233.16
2022-12-18T01:23:37.925Z,100242.38
2022-12-18T01:26:09.402Z,100245.84
2022-12-18T01:28:37.434Z,100250.88
2022-12-18T01:31:13.550Z,100246.81
2022-12-18T01:33:41.632Z,100247.91
2022-12-18T01:36:08.898Z,100240.59
2022-12-18T01:38:35.760Z,100238.38
2022-12-18T01:41:02.859Z,100237.50
2022-12-18T01:44:02.559Z,100236.00
2022-12-18T01:46:29.338Z,100243.19
2022-12-18T01:49:01.673Z,100239.38
2022-12-18T01:51:29.941Z,100235.91
2022-12-18T01:53:56.785Z,100225.75
2022-12-18T01:56:23.694Z,100239.38
2022-12-18T01:58:58.318Z,100237.72
2022-12-18T02:01:25.823Z,100227.56
2022-12-18T02:03:52.961Z,100225.22
2022-12-18T02:06:35.489Z,100235.03
2022-12-18T02:09:16.437Z,100236.50
2022-12-18T02:11:46.535Z,100239.38
2022-12-18T02:14:37.989Z,100244.78
2022-12-18T02:17:05.724Z,100249.19
2022-12-18T02:19:45.741Z,100251.94
2022-12-18T02:22:33.524Z,100253.75
2022-12-18T02:25:03.989Z,100257.81
2022-12-18T02:27:32.497Z,100252.78
2022-12-18T02:30:00.961Z,100259.94
2022-12-18T02:32:33.710Z,100254.44
2022-12-18T02:35:01.230Z,100262.47
2022-12-18T02:37:31.096Z,100258.72
2022-12-18T02:40:01.401Z,100248.38
2022-12-18T02:42:29.736Z,100268.69
2022-12-18T02:44:56.585Z,100260.28
2022-12-18T02:47:29.538Z,100259.19
2022-12-18T02:50:20.167Z,100257.09
2022-12-18T02:53:07.600Z,100258.34
2022-12-18T02:55:49.802Z,100257.78
2022-12-18T02:58:43.093Z,100262.91
2022-12-18T03:01:22.427Z,100255.56
2022-12-18T03:03:53.715Z,100258.66
2022-12-18T03:06:30.323Z,100254.19
2022-12-18T03:09:01.230Z,100261.22
2022-12-18T03:11:51.346Z,100260.78
2022-12-18T03:14:20.719Z,100257.81
2022-12-18T03:16:50.968Z,100258.16
2022-12-18T03:19:20.851Z,100252.78
2022-12-18T03:21:55.749Z,100257.63
2022-12-18T03:24:24.405Z,100258.75
2022-12-18T03:26:56.897Z,100266.50
2022-12-18T03:29:29.025Z,100262.47
2022-12-18T03:32:09.350Z,100260.47
2022-12-18T03:34:39.990Z,100257.03
2022-12-18T03:37:08.971Z,100251.91
2022-12-18T03:39:37.000Z,100254.25
2022-12-18T03:42:07.684Z,100247.63
2022-12-18T03:44:40.353Z,100248.75
2022-12-18T03:47:30.553Z,100259.69
2022-12-18T03:50:16.401Z,100261.66
2022-12-18T03:52:56.147Z,100262.75
2022-12-18T03:55:24.096Z,100264.25
2022-12-18T03:57:58.557Z,100252.28
2022-12-18T04:00:29.534Z,100251.06
2022-12-18T04:03:06.139Z,100244.72
2022-12-18T04:05:40.440Z,100254.44
2022-12-18T04:08:08.285Z,100249.47
2022-12-18T04:10:38.729Z,100253.19
2022-12-18T04:13:05.599Z,100258.16
2022-12-18T04:15:35.271Z,100260.81
2022-12-18T04:18:03.761Z,100262.66
2022-12-18T04:20:37.710Z,100286.38
2022-12-18T04:23:04.756Z,100291.28
2022-12-18T04:25:31.925Z,100285.47
2022-12-18T04:28:19.186Z,100278.06
2022-12-18T04:30:49.140Z,100280.91
2022-12-18T04:33:19.275Z,100272.41
2022-12-18T04:35:46.902Z,100279.25
2022-12-18T04:38:14.653Z,100282.63
2022-12-18T04:40:41.990Z,100282.44
2022-12-18T04:43:20.267Z,100276.16
2022-12-18T04:45:47.195Z,100274.31
2022-12-18T04:48:14.045Z,100271.13
2022-12-18T04:50:40.853Z,100279.19
2022-12-18T04:53:07.892Z,100278.41
2022-12-18T04:55:34.981Z,100276.47
2022-12-18T04:58:01.794Z,100284.34
2022-12-18T05:00:28.878Z,100272.56
2022-12-18T05:02:56.120Z,100269.16
2022-12-18T05:05:22.976Z,100266.88
2022-12-18T05:07:49.717Z,100262.09
2022-12-18T05:10:16.616Z,100251.50
2022-12-18T05:13:01.833Z,100237.16
2022-12-18T05:15:32.837Z,100230.94
2022-12-18T05:18:00.150Z,100239.94
2022-12-18T05:20:27.685Z,100233.56
2022-12-18T05:22:55.651Z,100227.91
2022-12-18T05:25:23.253Z,100215.59
2022-12-18T05:27:50.411Z,100207.28
2022-12-18T05:30:17.618Z,100219.88
2022-12-18T05:32:44.401Z,100212.69
2022-12-18T05:35:12.165Z,100208.41
2022-12-18T05:37:42.967Z,100205.91
2022-12-18T05:40:11.139Z,100204.28
2022-12-18T05:42:37.899Z,100214.50
2022-12-18T05:45:05.810Z,100228.47
2022-12-18T05:47:32.707Z,100223.88
2022-12-18T05:49:59.534Z,100211.75
2022-12-18T05:52:26.898Z,100211.16
2022-12-18T05:54:53.646Z,100207.59
2022-12-18T05:57:20.422Z,100216.28
2022-12-18T05:59:47.166Z,100210.03
2022-12-18T06:02:14.113Z,100204.22
2022-12-18T06:04:41.009Z,100201.84
2022-12-18T06:07:07.886Z,100210.81
2022-12-18T06:09:34.839Z,100210.72
2022-12-18T06:12:01.601Z,100203.13
2022-12-18T06:14:28.512Z,100214.50
2022-12-18T06:16:55.322Z,100212.84
2022-12-18T06:19:22.037Z,100209.94
2022-12-18T06:21:48.818Z,100219.19
2022-12-18T06:24:15.731Z,100216.69
2022-12-18T06:26:42.630Z,100205.84
2022-12-18T06:29:09.456Z,100219.13
2022-12-18T06:31:36.419Z,100223.81
2022-12-18T06:34:04.948Z,100225.19
2022-12-18T06:36:31.916Z,100202.28
2022-12-18T06:38:58.817Z,100197.91
2022-12-18T06:41:25.596Z,100206.13
2022-12-18T06:43:56.768Z,100210.34
2022-12-18T06:46:23.716Z,100201.06
2022-12-18T06:48:51.571Z,100199.94
2022-12-18T06:51:22.948Z,100218.03
2022-12-18T06:53:50.000Z,100211.31
2022-12-18T06:56:17.171Z,100207.69
2022-12-18T06:58:44.031Z,100205.00
2022-12-18T07:01:12.683Z,100202.06
2022-12-18T07:03:41.147Z,100202.34
2022-12-18T07:06:14.907Z,100204.34
2022-12-18T07:08:41.848Z,100202.78
2022-12-18T07:11:08.828Z,100221.84
2022-12-18T07:13:35.657Z,100213.94
2022-12-18T07:16:10.886Z,100202.06
2022-12-18T07:18:42.146Z,100207.81
2022-12-18T07:21:10.773Z,100199.25
2022-12-18T07:23:38.114Z,100209.34
2022-12-18T07:26:07.282Z,100215.53
2022-12-18T07:28:34.813Z,100194.38
2022-12-18T07:31:09.829Z,100209.19
2022-12-18T07:33:37.380Z,100193.50
2022-12-18T07:36:06.205Z,100197.94
2022-12-18T07:38:33.835Z,100187.84
2022-12-18T07:41:04.878Z,100192.66
2022-12-18T07:43:34.785Z,100183.72
2022-12-18T07:46:01.574Z,100183.19
2022-12-18T07:48:29.268Z,100181.38
2022-12-18T07:51:02.790Z,100175.75
2022-12-18T07:53:29.820Z,100171.59
2022-12-18T07:56:25.958Z,100153.13
2022-12-18T07:58:48.927Z,100136.75
2022-12-18T08:01:16.167Z,100133.88
2022-12-18T08:03:44.081Z,100132.94
2022-12-18T08:06:11.159Z,100149.78
2022-12-18T08:08:38.192Z,100161.50
2022-12-18T08:11:05.137Z,100159.44
2022-12-18T08:13:32.326Z,100156.63
2022-12-18T08:16:07.824Z,100155.22
2022-12-18T08:18:35.768Z,100164.72
2022-12-18T08:21:12.535Z,100158.34
2022-12-18T08:23:43.096Z,100152.06
2022-12-18T08:26:11.288Z,100147.56
2022-12-18T08:28:38.036Z,100134.97
2022-12-18T08:31:05.143Z,100120.28
2022-12-18T08:33:32.461Z,100127.06
2022-12-18T08:36:00.479Z,100117.16
2022-12-18T08:38:27.470Z,100123.75
2022-12-18T08:41:04.844Z,100125.47
2022-12-18T08:43:51.527Z,100115.56
2022-12-18T08:46:19.798Z,100110.69
2022-12-18T08:48:47.024Z,100118.94
2022-12-18T08:51:13.964Z,100114.81
2022-12-18T08:53:41.187Z,100114.72
2022-12-18T08:56:08.705Z,100112.00
2022-12-18T08:58:35.488Z,100112.03
2022-12-18T09:01:06.352Z,100119.28
2022-12-18T09:03:33.672Z,100124.59
2022-12-18T09:06:00.608Z,100112.22
2022-12-18T09:08:27.806Z,100100.34
2022-12-18T09:10:54.584Z,100092.88
2022-12-18T09:13:21.418Z,100092.53
2022-12-18T09:15:50.689Z,100089.53
2022-12-18T09:18:19.117Z,100079.72
2022-12-18T09:20:46.233Z,100083.19
2022-12-18T09:23:13.370Z,100078.94
2022-12-18T09:25:40.747Z,100083.88
2022-12-18T09:28:14.750Z,100074.09
2022-12-18T09:30:43.595Z,100078.38
2022-12-18T09:33:10.376Z,100070.75
2022-12-18T09:35:41.574Z,100066.06
2022-12-18T09:38:09.695Z,100063.66
2022-12-18T09:40:42.358Z,100070.91
2022-12-18T09:43:16.122Z,100080.47
2022-12-18T09:45:47.141Z,100072.31
2022-12-18T09:48:38.121Z,100066.50
2022-12-18T09:51:06.844Z,100066.31
2022-12-18T09:53:36.505Z,100070.97
2022-12-18T09:56:05.076Z,100070.16
2022-12-18T09:58:45.358Z,100064.75
2022-12-18T10:01:24.246Z,100060.13
2022-12-18T10:03:52.734Z,100061.66
2022-12-18T10:06:25.205Z,100063.91
2022-12-18T10:09:16.634Z,100065.50
2022-12-18T10:11:58.310Z,100063.84
2022-12-18T10:14:25.184Z,100061.25
2022-12-18T10:16:54.698Z,100059.97
2022-12-18T10:19:25.327Z,100069.00
2022-12-18T10:22:10.334Z,100066.09
2022-12-18T10:24:49.817Z,100055.34
2022-12-18T10:27:19.484Z,100038.44
2022-12-18T10:29:47.015Z,100038.81
2022-12-18T10:32:28.642Z,100039.22
2022-12-18T10:35:00.521Z,100026.59
2022-12-18T10:37:29.716Z,100025.94
2022-12-18T10:40:22.303Z,100020.81
2022-12-18T10:43:11.807Z,100013.59
2022-12-18T10:45:38.712Z,100003.63
2022-12-18T10:48:05.696Z,99996.31
2022-12-18T10:53:29.548Z,99994.84
2022-12-18T10:56:02.605Z,99984.66
2022-12-18T10:58:30.749Z,99981.91
2022-12-18T11:01:17.181Z,99982.63
2022-12-18T11:04:02.368Z,99971.72
2022-12-18T11:06:30.264Z,99962.88
2022-12-18T11:09:13.359Z,99961.66
2022-12-18T11:11:42.138Z,99948.88
2022-12-18T11:14:23.074Z,99942.63
2022-12-18T11:17:23.847Z,99937.56
2022-12-18T11:19:39.064Z,99934.59
2022-12-18T11:22:21.267Z,99936.44
2022-12-18T11:25:29.600Z,99926.25
2022-12-18T11:27:49.681Z,99920.69
2022-12-18T11:30:37.533Z,99915.19
2022-12-18T11:33:08.383Z,99906.56
2022-12-18T11:35:45.368Z,99901.66
2022-12-18T11:38:34.132Z,99886.56
2022-12-18T11:41:08.343Z,99883.06
2022-12-18T11:43:40.034Z,99866.91
2022-12-18T11:46:13.519Z,99855.94
2022-12-18T11:48:55.386Z,99844.28
2022-12-18T11:51:29.056Z,99839.25
2022-12-18T11:53:55.989Z,99840.44
2022-12-18T11:56:42.804Z,99818.41
2022-12-18T11:59:26.736Z,99813.88
2022-12-18T12:01:57.652Z,99806.34
2022-12-18T12:04:27.558Z,99789.00
2022-12-18T12:07:33.381Z,99793.88
2022-12-18T12:10:07.024Z,99787.59
2022-12-18T12:12:48.563Z,99776.72
2022-12-18T12:15:36.885Z,99780.06
2022-12-18T12:18:11.096Z,99775.53
2022-12-18T12:21:08.760Z,99765.28
2022-12-18T12:23:46.925Z,99774.13
2022-12-18T12:26:25.774Z,99772.06
2022-12-18T12:29:03.826Z,99772.91
2022-12-18T12:32:14.177Z,99768.41
2022-12-18T12:34:59.508Z,99762.88
2022-12-18T12:37:54.919Z,99753.47
2022-12-18T12:40:51.127Z,99753.28
2022-12-18T12:43:22.766Z,99753.88
2022-12-18T12:46:07.582Z,99739.97
2022-12-18T12:48:41.221Z,99743.63
2022-12-18T12:51:22.028Z,99747.13
2022-12-18T12:53:50.318Z,99737.53
2022-12-18T12:56:19.941Z,99729.34
2022-12-18T12:59:10.020Z,99706.22
2022-12-18T13:01:50.028Z,99702.94
2022-12-18T13:04:35.722Z,99705.78
2022-12-18T13:07:11.845Z,99698.00
2022-12-18T13:10:17.262Z,99683.72
2022-12-18T13:13:10.594Z,99685.97
2022-12-18T13:15:49.452Z,99690.63
2022-12-18T13:18:19.020Z,99687.16
2022-12-18T13:20:53.756Z,99681.00
2022-12-18T13:23:25.258Z,99663.00
2022-12-18T13:25:56.270Z,99673.47
2022-12-18T13:28:42.259Z,99660.38
2022-12-18T13:31:09.060Z,99660.56
2022-12-18T13:33:35.727Z,99658.50
2022-12-18T13:36:16.229Z,99646.41
2022-12-18T13:38:45.099Z,99644.56
2022-12-18T13:41:32.338Z,99635.00
2022-12-18T13:44:27.610Z,99631.00
2022-12-18T13:46:55.044Z,99624.84
2022-12-18T13:49:42.328Z,99627.97
2022-12-18T13:52:27.454Z,99617.78
2022-12-18T13:55:02.425Z,99602.59
2022-12-18T13:57:44.838Z,99603.03
2022-12-18T14:00:23.757Z,99597.34
2022-12-18T14:02:51.566Z,99586.28
2022-12-18T14:05:28.898Z,99582.97
2022-12-18T14:07:56.598Z,99585.63
2022-12-18T14:10:45.197Z,99579.50
2022-12-18T14:13:12.260Z,99556.41
2022-12-18T14:15:47.923Z,99567.44
2022-12-18T14:18:28.265Z,99561.06
2022-12-18T14:21:00.280Z,99543.94
2022-12-18T14:23:28.131Z,99541.06
2022-12-18T14:25:54.922Z,99530.84
2022-12-18T14:28:23.110Z,99531.88
2022-12-18T14:30:50.806Z,99527.38
2022-12-18T14:33:22.537Z,99537.81
2022-12-18T14:35:58.272Z,99538.63
2022-12-18T14:38:39.178Z,99538.66
2022-12-18T14:41:07.004Z,99522.72
2022-12-18T14:43:36.267Z,99517.59
2022-12-18T14:46:04.956Z,99514.75
2022-12-18T14:48:36.588Z,99511.44
2022-12-18T14:51:15.193Z,99510.22
2022-12-18T14:53:48.978Z,99497.34
2022-12-18T14:56:22.604Z,99481.19
2022-12-18T14:59:23.822Z,99476.09
2022-12-18T15:02:09.943Z,99481.63
2022-12-18T15:04:42.073Z,99474.69
2022-12-18T15:07:22.464Z,99471.00
2022-12-18T15:10:28.533Z,99461.22
2022-12-18T15:12:58.950Z,99466.31
2022-12-18T15:15:35.249Z,99457.72
2022-12-18T15:18:42.631Z,99457.13
2022-12-18T15:21:17.887Z,99462.22
2022-12-18T15:23:44.868Z,99449.97
2022-12-18T15:26:15.541Z,99446.50
2022-12-18T15:28:45.047Z,99447.50
2022-12-18T15:31:15.935Z,99436.25
2022-12-18T15:34:01.957Z,99428.72
2022-12-18T15:36:28.811Z,99418.50
2022-12-18T15:39:01.323Z,99412.38
2022-12-18T15:41:35.847Z,99413.59
2022-12-18T15:44:03.941Z,99400.09
2022-12-18T15:46:31.918Z,99377.00
2022-12-18T15:49:02.785Z,99366.56
2022-12-18T15:51:34.752Z,99375.56
2022-12-18T15:54:04.995Z,99372.72
2022-12-18T15:56:50.133Z,99369.03
2022-12-18T15:59:18.955Z,99363.53
2022-12-18T16:01:47.877Z,99360.63
2022-12-18T16:04:16.591Z,99344.47
2022-12-18T16:07:05.649Z,99347.75
2022-12-18T16:09:30.692Z,99329.16
2022-12-18T16:11:57.445Z,99326.31
2022-12-18T16:14:29.601Z,99324.25
2022-12-18T16:17:01.837Z,99322.41
2022-12-18T16:19:29.359Z,99340.78
2022-12-18T16:21:57.888Z,99318.09
2022-12-18T16:24:26.997Z,99312.34
2022-12-18T16:26:54.296Z,99298.66
2022-12-18T16:29:28.021Z,99284.16
2022-12-18T16:31:56.148Z,99284.34
2022-12-18T16:34:35.905Z,99272.91
2022-12-18T16:37:06.315Z,99278.22
2022-12-18T16:39:35.482Z,99270.84
2022-12-18T16:42:05.676Z,99272.69
2022-12-18T16:44:34.193Z,99254.25
2022-12-18T16:47:03.174Z,99242.59
2022-12-18T16:49:30.649Z,99243.41
2022-12-18T16:51:57.533Z,99238.72
2022-12-18T16:54:30.492Z,99242.22
2022-12-18T16:56:57.893Z,99227.88
2022-12-18T16:59:26.801Z,99215.84
2022-12-18T17:01:54.032Z,99205.16
2022-12-18T17:04:20.830Z,99214.13
2022-12-18T17:06:52.144Z,99201.03
2022-12-18T17:09:26.504Z,99197.97
2022-12-18T17:11:54.124Z,99202.66
2022-12-18T17:14:22.984Z,99191.84
2022-12-18T17:17:07.189Z,99212.50
2022-12-18T17:19:36.808Z,99216.59
2022-12-18T17:22:04.910Z,99188.59
2022-12-18T17:24:35.052Z,99195.38
2022-12-18T17:27:03.100Z,99194.56
2022-12-18T17:29:29.881Z,99176.38
2022-12-18T17:31:56.697Z,99174.97
2022-12-18T17:34:26.075Z,99161.31
2022-12-18T17:36:53.106Z,99164.56
2022-12-18T17:39:21.086Z,99151.28
2022-12-18T17:41:48.828Z,99146.59
2022-12-18T17:44:16.653Z,99139.44
2022-12-18T17:46:44.008Z,99133.34
2022-12-18T17:49:11.870Z,99129.25
2022-12-18T17:51:39.211Z,99116.00
2022-12-18T17:54:06.478Z,99125.38
2022-12-18T17:56:33.423Z,99107.38
2022-12-18T17:59:00.857Z,99102.06
2022-12-18T18:01:28.151Z,99113.72
2022-12-18T18:03:57.993Z,99101.63
2022-12-18T18:06:24.950Z,99095.56
2022-12-18T18:08:52.072Z,99098.97
2022-12-18T18:11:39.071Z,99108.00
2022-12-18T18:14:11.893Z,99096.56
2022-12-18T18:16:44.064Z,99085.53
2022-12-18T18:19:16.836Z,99071.44
2022-12-18T18:21:46.140Z,99059.63
2022-12-18T18:24:16.408Z,99056.31
2022-12-18T18:26:43.910Z,99049.53
2022-12-18T18:29:19.361Z,99042.59
2022-12-18T18:31:46.535Z,99030.53
2022-12-18T18:34:21.848Z,99029.72
2022-12-18T18:36:48.911Z,99015.19
2022-12-18T18:39:15.989Z,99029.25
2022-12-18T18:41:47.184Z,99020.66
2022-12-18T18:44:16.106Z,99010.47
2022-12-18T18:46:43.005Z,99013.34
2022-12-18T18:49:10.009Z,98992.47
2022-12-18T18:51:36.776Z,98997.75
2022-12-18T18:54:03.830Z,99004.28
2022-12-18T18:59:18.718Z,99002.88
2022-12-18T19:01:45.778Z,98989.81
2022-12-18T19:04:12.847Z,98995.50
2022-12-18T19:06:42.869Z,98979.75
2022-12-18T19:09:09.879Z,98974.00
2022-12-18T19:11:55.256Z,98975.84
2022-12-18T19:14:25.106Z,98977.84
2022-12-18T19:16:52.225Z,98965.59
2022-12-18T19:19:23.303Z,98958.97
2022-12-18T19:21:50.167Z,98955.88
2022-12-18T19:24:17.017Z,98949.38
2022-12-18T19:26:43.886Z,98949.56
2022-12-18T19:29:11.878Z,98932.44
2022-12-18T19:31:40.596Z,98930.34
2022-12-18T19:34:08.232Z,98930.78
2022-12-18T19:36:37.936Z,98926.84
2022-12-18T19:39:11.665Z,98916.13
2022-12-18T19:41:39.343Z,98917.28
2022-12-18T19:44:07.484Z,98920.69
2022-12-18T19:46:35.242Z,98907.53
2022-12-18T19:49:02.105Z,98908.72
2022-12-18T19:51:30.799Z,98885.41
2022-12-18T19:54:01.166Z,98882.69
2022-12-18T19:56:33.426Z,98878.56
2022-12-18T19:59:01.225Z,98857.56
2022-12-18T20:01:29.194Z,98870.44
2022-12-18T20:03:57.455Z,98854.69
2022-12-18T20:06:34.294Z,98846.13
2022-12-18T20:09:04.774Z,98844.03
2022-12-18T20:11:32.878Z,98842.41
2022-12-18T20:14:02.449Z,98830.56
2022-12-18T20:16:29.820Z,98824.00
2022-12-18T20:18:57.817Z,98822.41
2022-12-18T20:21:25.735Z,98811.50
2022-12-18T20:23:52.594Z,98822.41
2022-12-18T20:26:19.443Z,98803.00
2022-12-18T20:28:46.394Z,98804.63
2022-12-18T20:31:14.269Z,98803.75
2022-12-18T20:33:42.975Z,98795.34
2022-12-18T20:36:15.166Z,98782.25
2022-12-18T20:38:42.639Z,98777.97
2022-12-18T20:41:11.978Z,98780.09
2022-12-18T20:43:39.897Z,98766.00
2022-12-18T20:46:09.162Z,98756.63
2022-12-18T20:48:36.659Z,98758.69
2022-12-18T20:51:08.771Z,98758.03
2022-12-18T20:53:36.047Z,98756.84
2022-12-18T20:56:08.943Z,98764.16
2022-12-18T20:58:36.383Z,98762.03
2022-12-18T21:01:10.503Z,98753.22
2022-12-18T21:03:38.520Z,98757.41
2022-12-18T21:06:05.954Z,98751.97
2022-12-18T21:08:33.058Z,98746.94
2022-12-18T21:11:51.529Z,98735.72
2022-12-18T21:14:27.010Z,98732.53
2022-12-18T21:16:54.293Z,98732.66
2022-12-18T21:19:25.965Z,98741.47
2022-12-18T21:21:53.712Z,98726.53
2022-12-18T21:24:20.977Z,98737.75
2022-12-18T21:26:48.900Z,98734.44
2022-12-18T21:29:26.090Z,98740.34
2022-12-18T21:31:54.529Z,98732.91
2022-12-18T21:34:23.834Z,98722.31
2022-12-18T21:36:50.686Z,98725.47
2022-12-18T21:39:17.967Z,98728.25
2022-12-18T21:42:05.209Z,98724.28
2022-12-18T21:44:38.864Z,98722.84
2022-12-18T21:47:21.982Z,98731.34
2022-12-18T21:49:51.975Z,98715.78
2022-12-18T21:52:18.690Z,98711.97
2022-12-18T21:54:45.445Z,98702.66
2022-12-18T21:57:13.567Z,98696.19
2022-12-18T21:59:42.384Z,98696.06
2022-12-18T22:02:17.635Z,98699.69
2022-12-18T22:04:46.073Z,98703.97
2022-12-18T22:07:14.699Z,98684.16
2022-12-18T22:09:41.669Z,98684.66
2022-12-18T22:12:11.524Z,98686.88
2022-12-18T22:14:38.372Z,98682.13
2022-12-18T22:17:05.238Z,98680.28
2022-12-18T22:19:32.376Z,98673.44
2022-12-18T22:22:00.040Z,98669.81
2022-12-18T22:24:29.206Z,98660.72
2022-12-18T22:27:02.019Z,98660.09
2022-12-18T22:29:48.111Z,98660.72
2022-12-18T22:32:30.626Z,98648.13
2022-12-18T22:35:05.825Z,98631.56
2022-12-18T22:37:34.972Z,98637.31
2022-12-18T22:40:02.920Z,98630.28
2022-12-18T22:42:30.874Z,98619.09
2022-12-18T22:44:57.715Z,98621.94
2022-12-18T22:47:29.442Z,98601.69
2022-12-18T22:49:56.895Z,98591.28
2022-12-18T22:52:24.886Z,98584.69
2022-12-18T22:54:53.754Z,98570.59
2022-12-18T22:57:21.954Z,98569.44
2022-12-18T22:59:49.892Z,98562.75
2022-12-18T23:02:18.052Z,98545.19
2022-12-18T23:04:45.499Z,98535.66
2022-12-18T23:07:12.608Z,98538.69
2022-12-18T23:09:40.050Z,98540.91
2022-12-18T23:12:07.393Z,98536.00
2022-12-18T23:14:34.488Z,98531.84
2022-12-18T23:17:01.223Z,98523.19
2022-12-18T23:19:27.997Z,98522.59
2022-12-18T23:21:57.755Z,98510.56
2022-12-18T23:24:26.075Z,98505.84
2022-12-18T23:26:52.828Z,98504.09
2022-12-18T23:29:19.686Z,98504.34
2022-12-18T23:31:47.124Z,98481.81
2022-12-18T23:34:14.779Z,98479.81
2022-12-18T23:36:45.854Z,98476.09
2022-12-18T23:39:24.379Z,98473.25
2022-12-18T23:42:00.549Z,98474.72
2022-12-18T23:44:28.031Z,98463.84
2022-12-18T23:46:54.995Z,98463.50
2022-12-18T23:49:22.197Z,98468.00
2022-12-18T23:51:49.184Z,98456.56
2022-12-18T23:54:16.388Z,98447.56
2022-12-18T23:56:43.304Z,98429.59
2022-12-18T23:59:10.403Z,98432.28
